Time;durP1;ratioP1;P1;durP2;ratioP2;P2;SDS_P1;SDS_P2;PMS_P1;PMS_P2;Temp;Humidity;BMP_temperature;BMP_pressure;BME280_temperature;BME280_humidity;BME280_pressure;Samples;Min_cycle;Max_cycle;Signal;HPM_P1;HPM_P2
2022/04/19 00:00:22;;;;;;;2.17;1.80;;;;;;;;;;5052026;28;20032;-76
2022/04/19 00:02:48;;;;;;;2.25;1.90;;;;;;;;;;5052614;28;20051;-75
2022/04/19 00:05:13;;;;;;;3.83;1.92;;;;;;;;;;5052313;28;20056;-76
2022/04/19 00:07:39;;;;;;;4.10;1.80;;;;;;;;;;5052536;28;20060;-77
2022/04/19 00:10:06;;;;;;;2.45;1.80;;;;;;;;;;5052392;28;20065;-75
2022/04/19 00:12:31;;;;;;;2.85;1.75;;;;;;;;;;5052706;28;20032;-75
2022/04/19 00:14:56;;;;;;;2.65;1.83;;;;;;;;;;5052466;28;20043;-76
2022/04/19 00:17:22;;;;;;;2.25;1.70;;;;;;;;;;5052276;28;20021;-75
2022/04/19 00:19:47;;;;;;;2.28;1.88;;;;;;;;;;5051704;28;20025;-76
2022/04/19 00:22:12;;;;;;;2.30;2.03;;;;;;;;;;5052207;28;20060;-76
2022/04/19 00:24:39;;;;;;;3.53;1.90;;;;;;;;;;5052058;28;20053;-76
2022/04/19 00:27:04;;;;;;;1.73;1.63;;;;;;;;;;5052336;28;20037;-76
2022/04/19 00:29:29;;;;;;;2.33;1.60;;;;;;;;;;5052259;28;20036;-76
2022/04/19 00:31:55;;;;;;;2.30;1.88;;;;;;;;;;5050866;28;20021;-76
2022/04/19 00:34:20;;;;;;;2.47;1.70;;;;;;;;;;5052309;28;20064;-76
2022/04/19 00:36:45;;;;;;;2.42;1.73;;;;;;;;;;5052111;28;20071;-76
2022/04/19 00:39:11;;;;;;;2.20;1.70;;;;;;;;;;5051713;28;20465;-76
2022/04/19 00:41:36;;;;;;;1.83;1.60;;;;;;;;;;5050296;28;20029;-76
2022/04/19 00:44:01;;;;;;;2.30;1.95;;;;;;;;;;5051888;28;20021;-76
2022/04/19 00:46:26;;;;;;;2.15;1.67;;;;;;;;;;5051588;28;20073;-76
2022/04/19 00:48:56;;;;;;;3.60;1.67;;;;;;;;;;5051815;28;20017;-76
2022/04/19 00:51:23;;;;;;;2.65;1.88;;;;;;;;;;5051183;28;20037;-75
2022/04/19 00:53:49;;;;;;;3.33;2.10;;;;;;;;;;5051742;28;20478;-76
2022/04/19 00:56:15;;;;;;;2.42;2.00;;;;;;;;;;5051361;28;20035;-75
2022/04/19 00:58:40;;;;;;;3.72;1.90;;;;;;;;;;5050052;28;20245;-75
2022/04/19 01:01:06;;;;;;;2.42;2.00;;;;;;;;;;5054536;28;20017;-76
2022/04/19 01:03:31;;;;;;;2.42;1.90;;;;;;;;;;5055584;28;20471;-76
2022/04/19 01:05:58;;;;;;;2.83;1.92;;;;;;;;;;5055434;28;20021;-76
2022/04/19 01:08:24;;;;;;;2.35;1.85;;;;;;;;;;5055723;28;20025;-76
2022/04/19 01:10:50;;;;;;;2.45;1.80;;;;;;;;;;5055024;28;20025;-75
2022/04/19 01:13:18;;;;;;;3.72;1.90;;;;;;;;;;5055191;28;20035;-76
2022/04/19 01:15:48;;;;;;;3.38;1.98;;;;;;;;;;5054265;28;20437;-75
2022/04/19 01:18:17;;;;;;;1.80;1.70;;;;;;;;;;5055113;28;20033;-76
2022/04/19 01:20:42;;;;;;;3.40;2.08;;;;;;;;;;5054886;28;20032;-76
2022/04/19 01:23:08;;;;;;;2.63;2.10;;;;;;;;;;5055429;28;20552;-76
2022/04/19 01:25:33;;;;;;;2.90;2.17;;;;;;;;;;5054764;28;20389;-76
2022/04/19 01:27:59;;;;;;;3.72;2.00;;;;;;;;;;5054168;28;20589;-76
2022/04/19 01:30:24;;;;;;;2.10;1.65;;;;;;;;;;5054010;28;20459;-76
2022/04/19 01:32:50;;;;;;;2.08;1.70;;;;;;;;;;5054665;28;20021;-76
2022/04/19 01:35:19;;;;;;;3.72;1.85;;;;;;;;;;5054767;28;20108;-76
2022/04/19 01:37:49;;;;;;;1.73;1.63;;;;;;;;;;5054664;28;20025;-75
2022/04/19 01:40:16;;;;;;;3.55;2.33;;;;;;;;;;5054661;28;20175;-76
2022/04/19 01:42:52;;;;;;;3.80;1.75;;;;;;;;;;5054636;28;20021;-76
2022/04/19 01:45:19;;;;;;;2.63;1.90;;;;;;;;;;5054342;28;20025;-76
2022/04/19 01:47:45;;;;;;;2.03;1.80;;;;;;;;;;5054788;28;20056;-76
2022/04/19 01:50:13;;;;;;;2.20;1.90;;;;;;;;;;5054383;28;20470;-76
2022/04/19 01:52:39;;;;;;;3.25;2.00;;;;;;;;;;5055026;28;20537;-75
2022/04/19 01:55:07;;;;;;;2.78;1.88;;;;;;;;;;5055124;28;20037;-75
2022/04/19 01:57:33;;;;;;;3.40;1.95;;;;;;;;;;5055214;28;20028;-74
2022/04/19 01:59:59;;;;;;;2.85;2.08;;;;;;;;;;5055056;28;20024;-75
2022/04/19 02:02:24;;;;;;;2.45;1.80;;;;;;;;;;5054723;28;20112;-75
2022/04/19 02:04:52;;;;;;;4.50;2.80;;;;;;;;;;5054304;28;20031;-75
2022/04/19 02:07:18;;;;;;;4.63;1.77;;;;;;;;;;5054072;28;20020;-76
2022/04/19 02:09:43;;;;;;;2.15;1.70;;;;;;;;;;5054320;28;20175;-75
2022/04/19 02:12:09;;;;;;;2.40;2.00;;;;;;;;;;5053898;28;20052;-76
2022/04/19 02:14:34;;;;;;;3.05;2.35;;;;;;;;;;5054083;28;20244;-75
2022/04/19 02:17:00;;;;;;;4.03;2.05;;;;;;;;;;5054013;28;20023;-75
2022/04/19 02:19:25;;;;;;;3.42;2.00;;;;;;;;;;5053328;28;20089;-75
2022/04/19 02:21:51;;;;;;;2.55;1.70;;;;;;;;;;5052912;28;20028;-75
2022/04/19 02:24:16;;;;;;;5.05;2.00;;;;;;;;;;5053136;28;20021;-76
2022/04/19 02:26:41;;;;;;;3.00;1.92;;;;;;;;;;5051845;28;20033;-75
2022/04/19 02:29:07;;;;;;;3.08;1.90;;;;;;;;;;5053919;28;20016;-76
2022/04/19 02:31:32;;;;;;;3.70;1.90;;;;;;;;;;5053932;28;20025;-76
2022/04/19 02:33:58;;;;;;;2.90;2.08;;;;;;;;;;5053814;28;20052;-75
2022/04/19 02:36:25;;;;;;;3.20;2.20;;;;;;;;;;5053458;28;20561;-76
2022/04/19 02:38:50;;;;;;;3.42;2.10;;;;;;;;;;5053886;28;20029;-75
2022/04/19 02:41:15;;;;;;;2.53;2.00;;;;;;;;;;5057534;22;20041;-72
2022/04/19 02:43:41;;;;;;;4.45;2.45;;;;;;;;;;5012608;28;20105;-72
2022/04/19 02:46:06;;;;;;;8.63;3.13;;;;;;;;;;5012517;28;20418;-72
2022/04/19 02:48:31;;;;;;;3.70;2.05;;;;;;;;;;5012171;28;20026;-72
2022/04/19 02:50:57;;;;;;;4.95;2.67;;;;;;;;;;5012120;28;20022;-73
2022/04/19 02:53:22;;;;;;;3.90;2.35;;;;;;;;;;5012341;28;20498;-73
2022/04/19 02:55:48;;;;;;;3.00;1.98;;;;;;;;;;5012209;28;20064;-73
2022/04/19 02:58:13;;;;;;;2.33;2.10;;;;;;;;;;5012127;28;20022;-72
2022/04/19 03:00:39;;;;;;;5.57;2.03;;;;;;;;;;5012102;28;20033;-72
2022/04/19 03:03:04;;;;;;;3.40;2.42;;;;;;;;;;5012103;28;20037;-72
2022/04/19 03:05:30;;;;;;;2.58;1.90;;;;;;;;;;5012089;28;20050;-72
2022/04/19 03:07:56;;;;;;;3.13;2.28;;;;;;;;;;5011719;28;20041;-73
2022/04/19 03:10:21;;;;;;;3.20;2.42;;;;;;;;;;5012092;28;20026;-72
2022/04/19 03:12:47;;;;;;;3.17;2.22;;;;;;;;;;5012084;28;20152;-72
2022/04/19 03:15:13;;;;;;;3.08;2.40;;;;;;;;;;5012070;28;20025;-72
2022/04/19 03:17:40;;;;;;;3.33;2.22;;;;;;;;;;5011879;28;20410;-72
2022/04/19 03:20:08;;;;;;;9.55;4.85;;;;;;;;;;5011582;28;20438;-73
2022/04/19 03:28:03;;;;;;;6.05;3.10;;;;;;;;;;5011826;28;20091;-72
2022/04/19 03:30:29;;;;;;;7.43;2.92;;;;;;;;;;5011949;28;20029;-72
2022/04/19 03:32:54;;;;;;;5.82;2.88;;;;;;;;;;5011442;28;20028;-72
2022/04/19 03:35:20;;;;;;;5.47;2.42;;;;;;;;;;5011526;28;20026;-72
2022/04/19 03:37:46;;;;;;;4.78;2.28;;;;;;;;;;5011326;28;20083;-73
2022/04/19 03:40:11;;;;;;;3.70;2.00;;;;;;;;;;5011276;28;20080;-72
2022/04/19 03:42:40;;;;;;;3.70;2.58;;;;;;;;;;5011151;28;20030;-72
2022/04/19 03:45:06;;;;;;;3.17;2.30;;;;;;;;;;5011215;28;20168;-72
2022/04/19 03:47:34;;;;;;;3.67;2.10;;;;;;;;;;5011552;28;20040;-72
2022/04/19 03:50:00;;;;;;;4.20;2.20;;;;;;;;;;5009728;28;20109;-72
2022/04/19 03:52:25;;;;;;;3.90;2.17;;;;;;;;;;5011088;28;20092;-72
2022/04/19 03:54:51;;;;;;;4.80;2.60;;;;;;;;;;5011135;28;20435;-72
2022/04/19 03:57:18;;;;;;;5.35;2.67;;;;;;;;;;5011104;28;20029;-72
2022/04/19 03:59:43;;;;;;;7.22;2.70;;;;;;;;;;5009479;28;20045;-72
2022/04/19 04:02:08;;;;;;;3.08;2.17;;;;;;;;;;5009626;28;20514;-72
2022/04/19 04:04:35;;;;;;;4.40;2.17;;;;;;;;;;5011021;28;20121;-72
2022/04/19 04:07:04;;;;;;;2.65;2.22;;;;;;;;;;5010932;28;20438;-72
2022/04/19 04:09:32;;;;;;;3.08;2.28;;;;;;;;;;5010973;28;20542;-72
2022/04/19 04:12:05;;;;;;;4.03;2.30;;;;;;;;;;5010827;28;20028;-73
2022/04/19 04:14:30;;;;;;;3.20;2.30;;;;;;;;;;5010752;28;20054;-74
2022/04/19 04:16:56;;;;;;;3.65;2.30;;;;;;;;;;5010705;28;20495;-73
2022/04/19 04:19:21;;;;;;;4.82;2.60;;;;;;;;;;5010523;28;20026;-73
2022/04/19 04:21:46;;;;;;;3.35;2.50;;;;;;;;;;5010573;28;20109;-74
2022/04/19 04:24:12;;;;;;;2.38;2.10;;;;;;;;;;5010696;28;20497;-74
2022/04/19 04:26:37;;;;;;;2.83;2.10;;;;;;;;;;5010971;28;20026;-74
2022/04/19 04:29:02;;;;;;;4.22;2.30;;;;;;;;;;5010167;28;20028;-73
2022/04/19 04:31:28;;;;;;;3.70;2.30;;;;;;;;;;5010538;28;20104;-74
2022/04/19 04:33:53;;;;;;;4.82;2.50;;;;;;;;;;5010298;28;20491;-74
2022/04/19 04:36:19;;;;;;;6.93;2.47;;;;;;;;;;5010456;28;20026;-74
2022/04/19 04:38:45;;;;;;;4.00;2.40;;;;;;;;;;5010183;28;20087;-74
2022/04/19 04:41:10;;;;;;;6.22;2.53;;;;;;;;;;5009077;28;20056;-73
2022/04/19 04:43:37;;;;;;;3.85;2.35;;;;;;;;;;5010286;28;20483;-74
2022/04/19 04:51:30;;;;;;;3.83;2.60;;;;;;;;;;5010285;28;20032;-74
2022/04/19 04:53:56;;;;;;;5.05;2.50;;;;;;;;;;5010086;28;20030;-74
2022/04/19 04:56:23;;;;;;;3.60;2.50;;;;;;;;;;5010283;28;20029;-74
2022/04/19 04:58:49;;;;;;;4.53;2.42;;;;;;;;;;5010145;28;20105;-74
2022/04/19 05:01:14;;;;;;;4.05;2.50;;;;;;;;;;5010404;28;20116;-73
2022/04/19 05:03:39;;;;;;;3.08;2.25;;;;;;;;;;5008929;28;20033;-74
2022/04/19 05:06:05;;;;;;;2.67;2.20;;;;;;;;;;5010397;28;20104;-73
2022/04/19 05:08:30;;;;;;;7.13;2.53;;;;;;;;;;5009938;28;20203;-74
2022/04/19 05:10:55;;;;;;;3.88;2.25;;;;;;;;;;5010360;28;20059;-74
2022/04/19 05:13:21;;;;;;;6.15;2.58;;;;;;;;;;5010064;28;20025;-74
2022/04/19 05:15:46;;;;;;;3.40;2.13;;;;;;;;;;5010067;28;20018;-74
2022/04/19 05:18:11;;;;;;;3.00;2.45;;;;;;;;;;5009880;28;20018;-73
2022/04/19 05:20:37;;;;;;;4.97;2.65;;;;;;;;;;5009975;28;20041;-74
2022/04/19 05:23:02;;;;;;;3.78;2.75;;;;;;;;;;5008836;28;20088;-73
2022/04/19 05:25:27;;;;;;;4.72;2.40;;;;;;;;;;5010003;28;20498;-73
2022/04/19 05:27:52;;;;;;;5.22;2.53;;;;;;;;;;5008420;28;20030;-73
2022/04/19 05:30:18;;;;;;;4.55;2.20;;;;;;;;;;5009981;28;20026;-74
2022/04/19 05:32:43;;;;;;;6.07;2.63;;;;;;;;;;5009996;28;20025;-73
2022/04/19 05:35:08;;;;;;;4.38;2.67;;;;;;;;;;5009957;28;20026;-73
2022/04/19 05:37:37;;;;;;;4.55;2.47;;;;;;;;;;5009844;28;20101;-74
2022/04/19 05:40:03;;;;;;;5.72;2.42;;;;;;;;;;5009709;28;20029;-74
2022/04/19 05:42:28;;;;;;;3.78;2.55;;;;;;;;;;5009605;28;20037;-73
2022/04/19 05:44:53;;;;;;;3.88;2.63;;;;;;;;;;5009848;28;20434;-74
2022/04/19 05:47:19;;;;;;;6.18;3.00;;;;;;;;;;5011726;28;20026;-73
2022/04/19 05:49:44;;;;;;;3.92;2.70;;;;;;;;;;5013265;28;20476;-74
2022/04/19 05:52:09;;;;;;;5.25;2.78;;;;;;;;;;5013281;28;20034;-73
2022/04/19 05:54:34;;;;;;;4.05;2.95;;;;;;;;;;5013590;28;20025;-73
2022/04/19 05:57:00;;;;;;;4.93;3.58;;;;;;;;;;5013452;28;20029;-73
2022/04/19 05:59:25;;;;;;;6.53;3.15;;;;;;;;;;5018883;28;20490;-73
2022/04/19 06:04:53;;;;;;;5.82;3.30;;;;;;;;;;5016755;28;20087;-73
2022/04/19 06:07:19;;;;;;;3.70;3.00;;;;;;;;;;5028988;28;20022;-72
2022/04/19 06:09:44;;;;;;;5.47;3.50;;;;;;;;;;5029559;28;20026;-72
2022/04/19 06:12:10;;;;;;;3.75;2.97;;;;;;;;;;5028959;28;20025;-72
2022/04/19 06:14:35;;;;;;;4.07;2.47;;;;;;;;;;5017136;28;20064;-72
2022/04/19 06:17:00;;;;;;;4.80;2.97;;;;;;;;;;5012491;28;20071;-73
2022/04/19 06:19:27;;;;;;;4.95;2.72;;;;;;;;;;5010672;28;20030;-72
2022/04/19 06:21:53;;;;;;;4.75;3.08;;;;;;;;;;5028054;28;20399;-73
2022/04/19 06:24:18;;;;;;;4.85;3.10;;;;;;;;;;5003791;28;20169;-73
2022/04/19 06:26:44;;;;;;;5.93;3.10;;;;;;;;;;5006878;28;20030;-73
2022/04/19 06:29:09;;;;;;;4.10;2.63;;;;;;;;;;5009382;28;20498;-72
2022/04/19 06:31:34;;;;;;;3.72;2.60;;;;;;;;;;5016375;28;20069;-72
2022/04/19 06:34:00;;;;;;;4.22;2.47;;;;;;;;;;5024866;28;20040;-73
2022/04/19 06:36:25;;;;;;;2.90;1.95;;;;;;;;;;5008655;28;20251;-73
2022/04/19 06:38:50;;;;;;;3.05;2.22;;;;;;;;;;5007077;28;20045;-73
2022/04/19 06:41:16;;;;;;;3.97;2.50;;;;;;;;;;5009202;28;20598;-72
2022/04/19 06:43:41;;;;;;;2.70;2.10;;;;;;;;;;5008464;28;20092;-73
2022/04/19 06:46:08;;;;;;;3.00;2.20;;;;;;;;;;5005845;28;20033;-72
2022/04/19 06:48:34;;;;;;;2.25;2.05;;;;;;;;;;5016086;28;20049;-72
2022/04/19 06:51:00;;;;;;;3.22;2.25;;;;;;;;;;5008643;28;20018;-73
2022/04/19 06:53:29;;;;;;;3.50;2.20;;;;;;;;;;5013478;28;20427;-72
2022/04/19 06:55:58;;;;;;;2.30;2.10;;;;;;;;;;5015139;28;20083;-72
2022/04/19 06:58:24;;;;;;;3.05;1.90;;;;;;;;;;5007729;28;20041;-73
2022/04/19 07:00:50;;;;;;;3.13;1.98;;;;;;;;;;5014942;28;20040;-73
2022/04/19 07:03:15;;;;;;;3.85;2.03;;;;;;;;;;5022969;28;20033;-72
2022/04/19 07:05:41;;;;;;;3.65;1.80;;;;;;;;;;5017663;28;20029;-72
2022/04/19 07:08:07;;;;;;;3.03;1.80;;;;;;;;;;5017810;28;20324;-73
2022/04/19 07:10:36;;;;;;;3.78;2.30;;;;;;;;;;5004687;28;20431;-73
2022/04/19 07:13:01;;;;;;;3.47;2.30;;;;;;;;;;5007902;28;20566;-72
2022/04/19 07:15:26;;;;;;;3.67;1.98;;;;;;;;;;5012042;28;20034;-72
2022/04/19 07:17:52;;;;;;;3.63;2.60;;;;;;;;;;5012784;28;20044;-72
2022/04/19 07:28:37;;;;;;;4.00;2.67;;;;;;;;;;4989287;28;20095;-72
2022/04/19 07:31:03;;;;;;;4.15;2.45;;;;;;;;;;5017433;28;20033;-72
2022/04/19 07:33:32;;;;;;;3.33;2.50;;;;;;;;;;5004525;28;20116;-72
2022/04/19 07:35:57;;;;;;;5.35;2.60;;;;;;;;;;5015121;28;20026;-72
2022/04/19 07:38:23;;;;;;;3.25;2.40;;;;;;;;;;5015563;28;20438;-73
2022/04/19 07:40:49;;;;;;;2.72;1.83;;;;;;;;;;5023512;28;20084;-72
2022/04/19 07:43:15;;;;;;;2.10;1.60;;;;;;;;;;5014117;28;20029;-72
2022/04/19 07:45:40;;;;;;;3.97;1.83;;;;;;;;;;5007505;28;20079;-72
2022/04/19 07:48:06;;;;;;;2.35;1.88;;;;;;;;;;5012075;28;20566;-72
2022/04/19 07:50:33;;;;;;;2.72;2.00;;;;;;;;;;5011756;28;20026;-72
2022/04/19 07:52:58;;;;;;;4.75;2.22;;;;;;;;;;5010909;28;20018;-72
2022/04/19 07:55:23;;;;;;;2.95;1.90;;;;;;;;;;5015878;28;20027;-72
2022/04/19 07:57:49;;;;;;;2.67;2.10;;;;;;;;;;5017227;28;20064;-72
2022/04/19 08:00:15;;;;;;;3.13;1.98;;;;;;;;;;5017461;28;20519;-72
2022/04/19 08:02:41;;;;;;;10.27;2.10;;;;;;;;;;5018606;28;20045;-72
2022/04/19 08:05:07;;;;;;;4.85;2.10;;;;;;;;;;5020478;28;20057;-73
2022/04/19 08:07:33;;;;;;;3.55;2.45;;;;;;;;;;5023738;28;20022;-73
2022/04/19 08:09:58;;;;;;;2.28;1.85;;;;;;;;;;5023225;28;20033;-73
2022/04/19 08:12:24;;;;;;;3.83;1.98;;;;;;;;;;5026754;28;20037;-73
2022/04/19 08:14:50;;;;;;;2.90;2.22;;;;;;;;;;5026695;28;20036;-72
2022/04/19 08:17:15;;;;;;;4.18;2.05;;;;;;;;;;5027391;28;20386;-72
2022/04/19 08:19:41;;;;;;;2.50;2.00;;;;;;;;;;5016708;28;20072;-72
2022/04/19 08:22:06;;;;;;;7.30;2.17;;;;;;;;;;5019262;28;20100;-72
2022/04/19 08:24:31;;;;;;;3.22;2.30;;;;;;;;;;5017092;28;20037;-72
2022/04/19 08:26:57;;;;;;;4.93;1.90;;;;;;;;;;5008974;28;20528;-72
2022/04/19 08:29:22;;;;;;;3.47;1.80;;;;;;;;;;5009898;28;20072;-71
2022/04/19 08:31:48;;;;;;;2.80;1.90;;;;;;;;;;5006308;28;20026;-72
2022/04/19 08:34:14;;;;;;;2.72;1.60;;;;;;;;;;5011336;28;20029;-72
2022/04/19 08:36:40;;;;;;;2.22;1.55;;;;;;;;;;5016553;28;20028;-72
2022/04/19 08:39:05;;;;;;;2.63;1.60;;;;;;;;;;5014056;28;20026;-72
2022/04/19 08:41:31;;;;;;;4.65;1.75;;;;;;;;;;5022194;28;20487;-71
2022/04/19 08:43:57;;;;;;;2.38;1.52;;;;;;;;;;5007511;28;20036;-72
2022/04/19 08:46:23;;;;;;;1.65;1.55;;;;;;;;;;5012666;28;20610;-72
2022/04/19 08:48:48;;;;;;;2.63;1.63;;;;;;;;;;5025084;28;20053;-72
2022/04/19 08:51:18;;;;;;;1.77;1.42;;;;;;;;;;5014270;28;20065;-73
2022/04/19 08:59:14;;;;;;;1.65;1.45;;;;;;;;;;5015156;28;20037;-74
2022/04/19 09:01:41;;;;;;;1.45;1.33;;;;;;;;;;5008538;28;20022;-73
2022/04/19 09:04:06;;;;;;;2.45;1.55;;;;;;;;;;5013397;28;20164;-71
2022/04/19 09:06:55;;;;;;;4.53;1.65;;;;;;;;;;5007208;28;20128;-72
2022/04/19 09:09:24;;;;;;;1.75;1.10;;;;;;;;;;5006541;28;20109;-73
2022/04/19 09:12:04;;;;;;;2.00;1.42;;;;;;;;;;5005778;28;20026;-75
2022/04/19 09:14:30;;;;;;;1.30;1.20;;;;;;;;;;5014400;28;20109;-72
2022/04/19 09:17:08;;;;;;;1.65;1.33;;;;;;;;;;5026268;28;20108;-70
2022/04/19 09:19:34;;;;;;;1.50;1.20;;;;;;;;;;5025110;28;20022;-70
2022/04/19 09:22:00;;;;;;;2.97;1.33;;;;;;;;;;5014367;28;20569;-71
2022/04/19 09:24:26;;;;;;;2.17;1.50;;;;;;;;;;5020443;28;20068;-72
2022/04/19 09:26:52;;;;;;;3.75;1.50;;;;;;;;;;5014369;28;20084;-70
2022/04/19 09:29:21;;;;;;;2.00;1.55;;;;;;;;;;5014185;28;20387;-74
2022/04/19 09:31:50;;;;;;;1.65;1.30;;;;;;;;;;5018977;28;20186;-74
2022/04/19 09:34:29;;;;;;;2.13;1.50;;;;;;;;;;5030663;28;20025;-72
2022/04/19 09:37:10;;;;;;;5.75;1.77;;;;;;;;;;5020816;28;20395;-73
2022/04/19 09:39:37;;;;;;;1.42;1.33;;;;;;;;;;5019154;28;20040;-73
2022/04/19 09:42:05;;;;;;;1.92;1.60;;;;;;;;;;5024616;28;20021;-75
2022/04/19 09:44:36;;;;;;;1.40;1.27;;;;;;;;;;5007982;28;20040;-74
2022/04/19 09:47:04;;;;;;;2.25;1.50;;;;;;;;;;5014064;28;20028;-71
2022/04/19 09:49:49;;;;;;;2.00;1.40;;;;;;;;;;5029706;28;20029;-71
2022/04/19 09:52:38;;;;;;;3.00;1.60;;;;;;;;;;5029317;28;20028;-74
2022/04/19 09:55:08;;;;;;;3.78;1.60;;;;;;;;;;5029228;28;20034;-68
2022/04/19 09:57:36;;;;;;;4.88;1.70;;;;;;;;;;5019734;28;20031;-71
2022/04/19 10:00:05;;;;;;;2.45;1.58;;;;;;;;;;5012453;28;20483;-70
2022/04/19 10:08:10;;;;;;;2.53;1.88;;;;;;;;;;5012910;28;20381;-73
2022/04/19 10:10:37;;;;;;;4.35;2.40;;;;;;;;;;5012074;28;20029;-75
2022/04/19 10:13:06;;;;;;;3.08;2.05;;;;;;;;;;5009225;28;20030;-71
2022/04/19 10:15:35;;;;;;;3.33;2.20;;;;;;;;;;5016712;28;20095;-71
2022/04/19 10:18:06;;;;;;;3.78;2.22;;;;;;;;;;5000991;28;20025;-72
2022/04/19 10:20:36;;;;;;;3.70;3.20;;;;;;;;;;5018166;28;20029;-72
2022/04/19 10:23:04;;;;;;;4.23;2.63;;;;;;;;;;5012298;28;20045;-72
2022/04/19 10:25:47;;;;;;;3.72;2.80;;;;;;;;;;5021065;28;20022;-72
2022/04/19 10:28:26;;;;;;;2.95;1.73;;;;;;;;;;4992824;28;20049;-72
2022/04/19 10:30:53;;;;;;;3.97;1.77;;;;;;;;;;4993196;28;20518;-72
2022/04/19 10:33:44;;;;;;;4.03;1.75;;;;;;;;;;4993193;28;20036;-72
2022/04/19 10:36:23;;;;;;;4.88;2.00;;;;;;;;;;4993093;28;20488;-72
2022/04/19 10:39:15;;;;;;;8.93;6.80;;;;;;;;;;4992712;28;20034;-73
2022/04/19 10:42:05;;;;;;;3.95;3.55;;;;;;;;;;4993301;28;20105;-72
2022/04/19 10:44:36;;;;;;;3.80;3.30;;;;;;;;;;4993312;28;20077;-73
2022/04/19 10:47:19;;;;;;;3.67;2.97;;;;;;;;;;4993000;28;20018;-72
2022/04/19 10:49:59;;;;;;;3.25;2.95;;;;;;;;;;4992726;28;20045;-72
2022/04/19 10:52:39;;;;;;;3.50;3.20;;;;;;;;;;4992482;28;20026;-74
2022/04/19 10:55:21;;;;;;;4.65;3.05;;;;;;;;;;4992992;28;20566;-73
2022/04/19 10:58:16;;;;;;;6.28;3.40;;;;;;;;;;4992871;28;20106;-72
2022/04/19 11:00:41;;;;;;;5.63;3.40;;;;;;;;;;4993177;28;20495;-72
2022/04/19 11:03:11;;;;;;;4.43;2.80;;;;;;;;;;4993659;28;20026;-71
2022/04/19 11:05:44;;;;;;;5.03;2.75;;;;;;;;;;5008550;28;20040;-71
2022/04/19 11:08:24;;;;;;;5.07;3.05;;;;;;;;;;5012227;28;20022;-71
2022/04/19 11:11:22;;;;;;;3.47;2.53;;;;;;;;;;5012333;28;20083;-73
2022/04/19 11:14:36;;;;;;;4.43;2.63;;;;;;;;;;5030668;28;20482;-72
2022/04/19 11:17:21;;;;;;;3.20;2.40;;;;;;;;;;4951775;29;20074;-74
2022/04/19 11:20:07;;;;;;;4.80;2.38;;;;;;;;;;5005199;28;20079;-72
2022/04/19 11:22:51;;;;;;;3.05;2.60;;;;;;;;;;5010195;28;20037;-72
2022/04/19 11:25:35;;;;;;;2.97;2.60;;;;;;;;;;5005353;28;20014;-72
2022/04/19 11:28:01;;;;;;;2.97;2.25;;;;;;;;;;5014588;28;20173;-74
2022/04/19 11:30:26;;;;;;;2.87;2.33;;;;;;;;;;5028743;28;20112;-72
2022/04/19 11:32:56;;;;;;;3.53;2.40;;;;;;;;;;5026333;28;20271;-72
2022/04/19 11:35:22;;;;;;;3.75;2.67;;;;;;;;;;5008811;28;20105;-73
2022/04/19 11:37:48;;;;;;;4.97;2.90;;;;;;;;;;5009636;28;20168;-71
2022/04/19 11:48:50;;;;;;;3.60;3.13;;;;;;;;;;5009045;28;20076;-71
2022/04/19 11:51:17;;;;;;;3.75;3.00;;;;;;;;;;5011393;28;20022;-72
2022/04/19 11:53:43;;;;;;;4.32;2.90;;;;;;;;;;5010808;28;20038;-72
2022/04/19 11:56:09;;;;;;;3.35;2.60;;;;;;;;;;5011309;28;20045;-72
2022/04/19 11:58:36;;;;;;;3.00;2.50;;;;;;;;;;5010186;28;20041;-74
2022/04/19 12:01:05;;;;;;;7.72;2.17;;;;;;;;;;5009900;28;20076;-71
2022/04/19 12:03:36;;;;;;;4.20;2.50;;;;;;;;;;5016810;28;20037;-71
2022/04/19 12:06:07;;;;;;;4.47;2.22;;;;;;;;;;5009352;28;20022;-69
2022/04/19 12:08:42;;;;;;;2.63;1.98;;;;;;;;;;5009097;28;20109;-70
2022/04/19 12:11:14;;;;;;;3.42;2.88;;;;;;;;;;5009191;28;20045;-71
2022/04/19 12:13:49;;;;;;;3.60;2.38;;;;;;;;;;5008229;28;20068;-72
2022/04/19 12:16:34;;;;;;;3.47;2.20;;;;;;;;;;5009638;28;20531;-71
2022/04/19 12:19:08;;;;;;;3.63;2.63;;;;;;;;;;5010639;28;20040;-69
2022/04/19 12:21:41;;;;;;;3.22;2.63;;;;;;;;;;5009525;28;20036;-70
2022/04/19 12:24:09;;;;;;;5.10;2.47;;;;;;;;;;5002937;28;20043;-69
2022/04/19 12:26:35;;;;;;;3.97;2.30;;;;;;;;;;5010065;28;20368;-72
2022/04/19 12:29:19;;;;;;;3.00;2.40;;;;;;;;;;5002551;28;20185;-69
2022/04/19 12:31:47;;;;;;;4.50;2.30;;;;;;;;;;5010860;28;20025;-69
2022/04/19 12:34:15;;;;;;;5.35;2.38;;;;;;;;;;5010588;28;20049;-70
2022/04/19 12:36:48;;;;;;;3.33;2.47;;;;;;;;;;5010344;28;20106;-71
2022/04/19 12:39:21;;;;;;;6.40;2.50;;;;;;;;;;5010848;28;20597;-69
2022/04/19 12:41:49;;;;;;;3.47;2.40;;;;;;;;;;5011173;28;20033;-70
2022/04/19 12:44:15;;;;;;;5.07;2.50;;;;;;;;;;5010731;28;20108;-68
2022/04/19 12:46:46;;;;;;;4.10;2.35;;;;;;;;;;5009869;28;20041;-71
2022/04/19 12:49:26;;;;;;;3.15;1.90;;;;;;;;;;5009932;28;20037;-71
2022/04/19 12:52:07;;;;;;;5.00;2.30;;;;;;;;;;5010660;28;20475;-69
2022/04/19 12:54:57;;;;;;;2.35;1.90;;;;;;;;;;5010269;28;20068;-69
2022/04/19 12:57:23;;;;;;;3.13;1.70;;;;;;;;;;5007060;28;20021;-70
2022/04/19 12:59:50;;;;;;;2.85;1.92;;;;;;;;;;5010558;28;20197;-69
2022/04/19 13:02:18;;;;;;;3.80;1.92;;;;;;;;;;5007772;28;20026;-69
2022/04/19 13:04:44;;;;;;;2.13;1.60;;;;;;;;;;5009731;28;20029;-69
2022/04/19 13:12:37;;;;;;;3.10;2.00;;;;;;;;;;5009843;28;20036;-70
2022/04/19 13:15:04;;;;;;;2.60;2.10;;;;;;;;;;5009157;28;20017;-70
2022/04/19 13:17:34;;;;;;;4.28;2.28;;;;;;;;;;5009511;28;20024;-69
2022/04/19 13:20:00;;;;;;;4.18;1.80;;;;;;;;;;5009646;28;20041;-70
2022/04/19 13:22:26;;;;;;;3.63;1.92;;;;;;;;;;5010209;28;20303;-69
2022/04/19 13:24:51;;;;;;;3.70;1.80;;;;;;;;;;5010205;28;20030;-69
2022/04/19 13:27:17;;;;;;;3.03;2.00;;;;;;;;;;5009491;28;20052;-71
2022/04/19 13:29:43;;;;;;;2.95;1.75;;;;;;;;;;5010329;28;20018;-71
2022/04/19 13:32:10;;;;;;;3.58;2.58;;;;;;;;;;5009940;28;20034;-71
2022/04/19 13:34:36;;;;;;;5.18;2.00;;;;;;;;;;5010167;28;20065;-69
2022/04/19 13:37:03;;;;;;;4.63;2.60;;;;;;;;;;5009278;28;20049;-70
2022/04/19 13:39:29;;;;;;;2.30;1.63;;;;;;;;;;5009665;28;20037;-69
2022/04/19 13:41:55;;;;;;;1.90;1.70;;;;;;;;;;5009717;28;20033;-68
2022/04/19 13:44:20;;;;;;;3.47;2.20;;;;;;;;;;5009985;28;20052;-69
2022/04/19 13:46:48;;;;;;;2.60;2.13;;;;;;;;;;5009402;28;20112;-69
2022/04/19 13:49:14;;;;;;;1.98;1.77;;;;;;;;;;5009622;28;20077;-69
2022/04/19 13:51:42;;;;;;;3.22;1.70;;;;;;;;;;5009589;28;20030;-68
2022/04/19 13:54:14;;;;;;;4.32;2.22;;;;;;;;;;5009916;28;20025;-68
2022/04/19 13:56:44;;;;;;;3.33;1.95;;;;;;;;;;5009492;28;20092;-69
2022/04/19 13:59:12;;;;;;;5.68;2.20;;;;;;;;;;5009814;28;20471;-69
2022/04/19 14:01:38;;;;;;;2.97;2.20;;;;;;;;;;5009949;28;20113;-70
2022/04/19 14:04:03;;;;;;;3.42;2.10;;;;;;;;;;5009162;28;20117;-68
2022/04/19 14:06:30;;;;;;;4.13;2.13;;;;;;;;;;5009526;28;20033;-68
2022/04/19 14:08:56;;;;;;;2.60;1.73;;;;;;;;;;5013157;28;20029;-68
2022/04/19 14:11:23;;;;;;;3.90;2.13;;;;;;;;;;5012671;28;20053;-68
2022/04/19 14:13:49;;;;;;;3.78;2.28;;;;;;;;;;5013007;28;20029;-71
2022/04/19 14:16:14;;;;;;;3.05;2.47;;;;;;;;;;5012289;28;20025;-71
2022/04/19 14:18:39;;;;;;;6.07;2.05;;;;;;;;;;5012587;28;20021;-70
2022/04/19 14:21:05;;;;;;;4.78;2.40;;;;;;;;;;5012958;28;20156;-69
2022/04/19 14:23:32;;;;;;;3.42;1.98;;;;;;;;;;5012783;28;20400;-68
2022/04/19 14:25:58;;;;;;;3.22;1.75;;;;;;;;;;5012143;28;20040;-69
2022/04/19 14:33:15;;;;;;;3.60;1.75;;;;;;;;;;5012929;28;20038;-69
2022/04/19 14:33:54;;;;;;;2.47;1.70;;;;;;;;;;5012651;28;20076;-69
2022/04/19 14:36:19;;;;;;;2.28;1.65;;;;;;;;;;5012052;28;20026;-69
2022/04/19 14:38:44;;;;;;;2.70;1.60;;;;;;;;;;5012013;28;20025;-70
2022/04/19 14:41:10;;;;;;;1.80;1.50;;;;;;;;;;5012293;28;20037;-70
2022/04/19 14:43:35;;;;;;;3.08;1.65;;;;;;;;;;5068381;22;20506;-79
2022/04/19 14:46:00;;;;;;;2.20;1.38;;;;;;;;;;5054540;28;20432;-78
2022/04/19 14:48:25;;;;;;;3.40;1.90;;;;;;;;;;5052008;28;20021;-78
2022/04/19 14:53:35;;;;;;;2.65;1.70;;;;;;;;;;5053533;28;20043;-78
2022/04/19 14:56:01;;;;;;;2.00;1.63;;;;;;;;;;5052512;28;20033;-76
2022/04/19 14:58:26;;;;;;;1.90;1.58;;;;;;;;;;5052733;28;20025;-78
2022/04/19 15:00:52;;;;;;;2.80;1.50;;;;;;;;;;5054325;28;20086;-77
2022/04/19 15:03:17;;;;;;;2.45;1.58;;;;;;;;;;5052717;28;20466;-77
2022/04/19 15:05:43;;;;;;;2.38;1.40;;;;;;;;;;5051566;28;20031;-75
2022/04/19 15:08:08;;;;;;;2.60;1.38;;;;;;;;;;5052173;28;20436;-78
2022/04/19 15:10:33;;;;;;;4.78;1.67;;;;;;;;;;5052034;28;20021;-75
2022/04/19 15:12:59;;;;;;;2.20;1.70;;;;;;;;;;5051508;28;20470;-78
2022/04/19 15:15:24;;;;;;;2.45;1.45;;;;;;;;;;5049541;28;20449;-76
2022/04/19 15:17:49;;;;;;;2.97;1.30;;;;;;;;;;5054518;28;20040;-75
2022/04/19 15:20:15;;;;;;;2.40;1.52;;;;;;;;;;5054785;28;20291;-77
2022/04/19 15:22:40;;;;;;;2.95;1.80;;;;;;;;;;5052407;28;20029;-76
2022/04/19 15:25:05;;;;;;;2.47;1.30;;;;;;;;;;5051009;28;20367;-77
2022/04/19 15:27:31;;;;;;;2.90;1.40;;;;;;;;;;5054121;28;20036;-77
2022/04/19 15:29:57;;;;;;;1.80;1.48;;;;;;;;;;5051794;28;20475;-78
2022/04/19 15:32:23;;;;;;;3.08;1.73;;;;;;;;;;5052615;28;20076;-77
2022/04/19 15:34:48;;;;;;;2.22;1.58;;;;;;;;;;5053215;28;20033;-78
2022/04/19 15:37:15;;;;;;;3.70;1.92;;;;;;;;;;5052457;28;20096;-76
2022/04/19 15:39:40;;;;;;;4.38;2.50;;;;;;;;;;5053372;28;20288;-78